Time;durP1;ratioP1;P1;durP2;ratioP2;P2;SDS_P1;SDS_P2;PMS_P1;PMS_P2;Temp;Humidity;BMP_temperature;BMP_pressure;BME280_temperature;BME280_humidity;BME280_pressure;Samples;Min_cycle;Max_cycle;Signal;HPM_P1;HPM_P2
2021/06/03 00:01:58;;;;;;;;;;;20.20;61.50;;;;;;5033829;28;1331;-71
2021/06/03 00:04:24;;;;;;;;;;;20.20;61.50;;;;;;5033749;28;1077;-71
2021/06/03 00:06:49;;;;;;;;;;;20.20;61.50;;;;;;5034364;28;2001;-71
2021/06/03 00:09:14;;;;;;;;;;;20.20;61.60;;;;;;5035525;28;1248;-71
2021/06/03 00:11:40;;;;;;;;;;;20.20;61.60;;;;;;5033929;28;1080;-71
2021/06/03 00:14:06;;;;;;;;;;;20.20;61.60;;;;;;5033183;28;1108;-71
2021/06/03 00:16:33;;;;;;;;;;;20.20;61.60;;;;;;5033616;28;1119;-72
2021/06/03 00:19:06;;;;;;;;;;;20.20;61.60;;;;;;5035176;28;1298;-71
2021/06/03 00:21:31;;;;;;;;;;;20.20;61.60;;;;;;5033575;28;1099;-71
2021/06/03 00:23:57;;;;;;;;;;;20.20;61.70;;;;;;5032849;28;1096;-71
2021/06/03 00:26:22;;;;;;;;;;;20.20;61.70;;;;;;5013636;28;1898;-71
2021/06/03 00:28:48;;;;;;;;;;;20.20;61.70;;;;;;5030150;28;1354;-71
2021/06/03 00:31:13;;;;;;;;;;;20.20;61.70;;;;;;5034935;28;1115;-71
2021/06/03 00:33:39;;;;;;;;;;;20.20;61.70;;;;;;5032447;28;1128;-71
2021/06/03 00:36:04;;;;;;;;;;;20.20;61.70;;;;;;5034948;28;1067;-71
2021/06/03 00:38:29;;;;;;;;;;;20.20;61.80;;;;;;5032946;28;1190;-70
2021/06/03 00:40:55;;;;;;;;;;;20.20;61.80;;;;;;5034769;28;1067;-71
2021/06/03 00:43:20;;;;;;;;;;;20.20;61.80;;;;;;5033667;28;1068;-71
2021/06/03 00:45:46;;;;;;;;;;;20.20;61.80;;;;;;5034402;28;1056;-71
2021/06/03 00:48:11;;;;;;;;;;;20.20;61.80;;;;;;5033991;28;1975;-71
2021/06/03 00:50:40;;;;;;;;;;;20.20;61.80;;;;;;5034409;28;1119;-72
2021/06/03 00:53:07;;;;;;;;;;;20.20;61.90;;;;;;5033628;28;1111;-71
2021/06/03 00:55:33;;;;;;;;;;;20.20;61.80;;;;;;5033977;28;992;-71
2021/06/03 00:57:58;;;;;;;;;;;20.20;61.90;;;;;;5033695;28;1358;-71
2021/06/03 01:00:23;;;;;;;;;;;20.20;61.90;;;;;;5034356;28;1024;-71
2021/06/03 01:02:49;;;;;;;;;;;20.20;61.90;;;;;;5033099;28;1150;-71
2021/06/03 01:05:21;;;;;;;;;;;20.20;61.90;;;;;;5032591;28;1171;-71
2021/06/03 01:07:48;;;;;;;;;;;20.20;61.90;;;;;;5032733;28;1894;-72
2021/06/03 01:10:21;;;;;;;;;;;20.20;62.00;;;;;;5032653;28;1088;-71
2021/06/03 01:12:56;;;;;;;;;;;20.20;62.00;;;;;;5034060;28;1095;-71
2021/06/03 01:15:22;;;;;;;;;;;20.20;62.00;;;;;;5032607;28;1162;-72
2021/06/03 01:17:47;;;;;;;;;;;20.20;62.00;;;;;;5032749;28;1541;-72
2021/06/03 01:20:13;;;;;;;;;;;20.20;62.00;;;;;;5032874;28;1154;-72
2021/06/03 01:22:48;;;;;;;;;;;20.20;62.00;;;;;;5033500;28;1115;-72
2021/06/03 01:25:13;;;;;;;;;;;20.20;62.00;;;;;;5033313;28;1043;-71
2021/06/03 01:27:39;;;;;;;;;;;20.20;62.00;;;;;;5033917;28;1918;-72
2021/06/03 01:30:20;;;;;;;;;;;20.20;62.10;;;;;;5033532;28;1142;-72
2021/06/03 01:32:48;;;;;;;;;;;20.10;62.00;;;;;;5032526;28;1092;-72
2021/06/03 01:35:16;;;;;;;;;;;20.20;62.10;;;;;;5032032;28;1132;-71
2021/06/03 01:37:42;;;;;;;;;;;20.10;62.00;;;;;;5032020;28;1374;-72
2021/06/03 01:40:07;;;;;;;;;;;20.20;62.10;;;;;;5031619;28;1023;-71
2021/06/03 01:42:33;;;;;;;;;;;20.10;62.10;;;;;;5033582;28;1060;-71
2021/06/03 01:44:58;;;;;;;;;;;20.10;62.00;;;;;;5032106;28;1064;-71
2021/06/03 01:47:24;;;;;;;;;;;20.10;62.10;;;;;;5033321;28;1966;-72
2021/06/03 01:49:49;;;;;;;;;;;20.10;62.10;;;;;;5031628;28;1119;-71
2021/06/03 01:52:14;;;;;;;;;;;20.10;62.00;;;;;;5033148;28;1087;-72
2021/06/03 01:54:41;;;;;;;;;;;20.10;62.10;;;;;;5031405;28;1075;-71
2021/06/03 01:57:07;;;;;;;;;;;20.10;62.10;;;;;;5033208;28;1295;-72
2021/06/03 01:59:33;;;;;;;;;;;20.10;62.10;;;;;;5031977;28;1166;-72
2021/06/03 02:01:58;;;;;;;;;;;20.10;62.10;;;;;;5033055;28;1087;-72
2021/06/03 02:04:24;;;;;;;;;;;20.10;62.10;;;;;;5032249;28;1095;-71
2021/06/03 02:06:49;;;;;;;;;;;20.10;62.10;;;;;;5032656;28;1906;-71
2021/06/03 02:09:15;;;;;;;;;;;20.20;62.20;;;;;;5032887;28;1267;-72
2021/06/03 02:11:41;;;;;;;;;;;20.10;62.20;;;;;;5032970;28;1076;-71
2021/06/03 02:14:07;;;;;;;;;;;20.10;62.10;;;;;;5030182;28;1096;-71
2021/06/03 02:16:34;;;;;;;;;;;20.10;62.20;;;;;;5032777;28;1016;-72
2021/06/03 02:19:07;;;;;;;;;;;20.10;62.20;;;;;;5030943;28;1206;-72
2021/06/03 02:21:32;;;;;;;;;;;20.10;62.20;;;;;;5032961;28;1083;-71
2021/06/03 02:23:58;;;;;;;;;;;20.10;62.20;;;;;;5032610;28;1170;-72
2021/06/03 02:26:23;;;;;;;;;;;20.10;62.20;;;;;;5031670;28;1898;-71
2021/06/03 02:28:49;;;;;;;;;;;20.10;62.20;;;;;;5031650;28;1389;-72
2021/06/03 02:31:14;;;;;;;;;;;20.10;62.30;;;;;;5032682;28;1163;-72
2021/06/03 02:33:40;;;;;;;;;;;20.10;62.20;;;;;;5030771;28;1143;-71
2021/06/03 02:36:06;;;;;;;;;;;20.10;62.20;;;;;;5032764;28;1043;-72
2021/06/03 02:38:31;;;;;;;;;;;20.10;62.20;;;;;;5030327;28;1367;-72
2021/06/03 02:40:58;;;;;;;;;;;20.10;62.30;;;;;;5011771;28;1144;-71
2021/06/03 02:43:23;;;;;;;;;;;20.10;62.20;;;;;;5026132;28;1085;-71
2021/06/03 02:45:48;;;;;;;;;;;20.10;62.30;;;;;;5032087;28;1115;-72
2021/06/03 02:48:14;;;;;;;;;;;20.10;62.30;;;;;;5030658;28;1906;-72
2021/06/03 02:50:39;;;;;;;;;;;20.10;62.30;;;;;;5031434;28;1155;-71
2021/06/03 02:53:05;;;;;;;;;;;20.10;62.30;;;;;;5032208;28;1163;-71
2021/06/03 02:55:31;;;;;;;;;;;20.10;62.30;;;;;;5032784;28;1060;-72
2021/06/03 02:57:57;;;;;;;;;;;20.10;62.30;;;;;;5032452;28;1268;-71
2021/06/03 03:00:23;;;;;;;;;;;20.10;62.30;;;;;;5031176;28;1057;-71
2021/06/03 03:02:49;;;;;;;;;;;20.10;62.30;;;;;;5031731;28;1064;-71
2021/06/03 03:05:15;;;;;;;;;;;20.10;62.40;;;;;;5032014;28;1075;-72
2021/06/03 03:07:40;;;;;;;;;;;20.10;62.40;;;;;;5031470;28;1910;-71
2021/06/03 03:10:10;;;;;;;;;;;20.10;62.30;;;;;;5032328;28;1059;-72
2021/06/03 03:12:35;;;;;;;;;;;20.10;62.40;;;;;;5031258;28;1041;-72
2021/06/03 03:15:01;;;;;;;;;;;20.10;62.30;;;;;;5030346;28;1107;-72
2021/06/03 03:17:26;;;;;;;;;;;20.10;62.40;;;;;;5031990;28;1367;-71
2021/06/03 03:19:52;;;;;;;;;;;20.10;62.30;;;;;;5031645;28;1118;-71
2021/06/03 03:22:17;;;;;;;;;;;20.10;62.30;;;;;;5031916;28;1103;-71
2021/06/03 03:24:43;;;;;;;;;;;20.10;62.40;;;;;;5031413;28;1107;-71
2021/06/03 03:27:08;;;;;;;;;;;20.10;62.40;;;;;;5035771;28;1898;-72
2021/06/03 03:29:34;;;;;;;;;;;20.10;62.40;;;;;;5034270;28;1151;-71
2021/06/03 03:31:59;;;;;;;;;;;20.10;62.40;;;;;;5035846;28;1165;-72
2021/06/03 03:34:24;;;;;;;;;;;20.10;62.40;;;;;;5033732;28;1056;-71
2021/06/03 03:36:50;;;;;;;;;;;20.10;62.30;;;;;;5034329;28;1100;-72
2021/06/03 03:39:15;;;;;;;;;;;20.10;61.70;;;;;;5035853;28;1232;-71
2021/06/03 03:41:41;;;;;;;;;;;20.10;61.70;;;;;;5035936;28;1102;-71
2021/06/03 03:44:06;;;;;;;;;;;20.10;61.90;;;;;;5034799;28;1578;-71
2021/06/03 03:46:32;;;;;;;;;;;20.20;61.80;;;;;;5035386;28;1971;-72
2021/06/03 03:48:57;;;;;;;;;;;20.20;61.80;;;;;;5034184;28;1205;-72
2021/06/03 03:51:23;;;;;;;;;;;20.30;61.70;;;;;;5035070;28;1095;-72
2021/06/03 03:53:48;;;;;;;;;;;20.40;61.60;;;;;;5014015;28;1466;-72
2021/06/03 03:56:13;;;;;;;;;;;20.40;61.40;;;;;;5029761;28;1206;-72
2021/06/03 03:58:41;;;;;;;;;;;20.50;61.20;;;;;;5035248;28;1310;-72
2021/06/03 04:01:06;;;;;;;;;;;20.60;61.00;;;;;;5033708;28;1112;-72
2021/06/03 04:03:32;;;;;;;;;;;20.70;60.90;;;;;;5033463;28;1079;-71
2021/06/03 04:05:57;;;;;;;;;;;20.70;60.70;;;;;;5034822;28;1949;-71
2021/06/03 04:08:23;;;;;;;;;;;20.80;60.50;;;;;;5035360;28;1276;-71
2021/06/03 04:10:48;;;;;;;;;;;20.80;60.30;;;;;;5035531;28;1075;-71
2021/06/03 04:13:14;;;;;;;;;;;20.90;60.10;;;;;;5034464;28;1118;-71
2021/06/03 04:15:39;;;;;;;;;;;20.90;60.00;;;;;;5034555;28;1182;-71
2021/06/03 04:18:05;;;;;;;;;;;21.00;59.90;;;;;;5034997;28;1268;-71
2021/06/03 04:20:33;;;;;;;;;;;21.00;59.80;;;;;;5033941;28;1088;-71
2021/06/03 04:22:58;;;;;;;;;;;21.00;59.70;;;;;;5033501;28;1088;-71
2021/06/03 04:25:25;;;;;;;;;;;21.10;59.70;;;;;;5034218;28;1115;-72
2021/06/03 04:27:50;;;;;;;;;;;21.10;59.60;;;;;;5034554;28;1898;-71
2021/06/03 04:30:17;;;;;;;;;;;21.10;59.50;;;;;;5034588;28;1154;-71
2021/06/03 04:32:42;;;;;;;;;;;21.20;59.50;;;;;;5033143;28;1002;-72
2021/06/03 04:35:08;;;;;;;;;;;21.20;59.50;;;;;;5034398;28;1087;-71
2021/06/03 04:37:33;;;;;;;;;;;21.20;59.40;;;;;;5033924;28;1206;-72
2021/06/03 04:39:58;;;;;;;;;;;21.20;59.30;;;;;;5033744;28;1048;-71
2021/06/03 04:42:24;;;;;;;;;;;21.20;59.30;;;;;;5033240;28;1100;-71
2021/06/03 04:44:49;;;;;;;;;;;21.30;59.30;;;;;;5033633;28;1055;-72
2021/06/03 04:47:15;;;;;;;;;;;21.30;59.20;;;;;;5034479;28;1961;-71
2021/06/03 04:49:40;;;;;;;;;;;21.30;59.20;;;;;;5034227;28;1067;-72
2021/06/03 04:54:50;;;;;;;;;;;21.30;59.10;;;;;;5023704;28;1786;-70
2021/06/03 04:57:15;;;;;;;;;;;21.30;58.50;;;;;;5038030;28;2053;-70
2021/06/03 04:59:40;;;;;;;;;;;21.30;57.60;;;;;;5042718;28;1278;-70
2021/06/03 05:02:06;;;;;;;;;;;21.20;57.20;;;;;;5044206;28;1058;-71
2021/06/03 05:04:31;;;;;;;;;;;21.20;56.90;;;;;;5031690;28;1107;-71
2021/06/03 05:06:57;;;;;;;;;;;21.20;56.80;;;;;;5031817;28;1899;-71
2021/06/03 05:09:22;;;;;;;;;;;21.20;56.20;;;;;;5032632;28;1154;-71
2021/06/03 05:11:48;;;;;;;;;;;21.10;56.10;;;;;;5032542;28;1207;-71
2021/06/03 05:14:14;;;;;;;;;;;21.10;55.90;;;;;;5032521;28;1071;-71
2021/06/03 05:16:40;;;;;;;;;;;21.10;55.70;;;;;;5031397;28;1072;-71
2021/06/03 05:19:05;;;;;;;;;;;21.10;55.50;;;;;;5032785;28;1227;-71
2021/06/03 05:21:31;;;;;;;;;;;21.00;55.40;;;;;;5032430;28;1163;-71
2021/06/03 05:23:56;;;;;;;;;;;21.00;55.30;;;;;;5032586;28;1197;-71
2021/06/03 05:26:22;;;;;;;;;;;21.00;55.30;;;;;;5032693;28;1906;-71
2021/06/03 05:28:47;;;;;;;;;;;21.00;55.20;;;;;;5033919;28;1355;-73
2021/06/03 05:31:13;;;;;;;;;;;21.00;55.20;;;;;;5033802;28;1122;-72
2021/06/03 05:33:38;;;;;;;;;;;20.90;54.80;;;;;;5031986;28;1140;-72
2021/06/03 05:36:04;;;;;;;;;;;20.90;54.80;;;;;;5032897;28;1079;-73
2021/06/03 05:38:29;;;;;;;;;;;20.90;55.00;;;;;;5033241;28;1191;-71
2021/06/03 05:40:54;;;;;;;;;;;20.90;55.40;;;;;;5031802;28;1139;-71
2021/06/03 05:43:20;;;;;;;;;;;20.90;55.60;;;;;;5031838;28;1103;-71
2021/06/03 05:45:45;;;;;;;;;;;20.90;55.80;;;;;;5031853;28;1119;-71
2021/06/03 05:48:11;;;;;;;;;;;21.00;56.10;;;;;;5031532;28;1956;-71
2021/06/03 05:50:36;;;;;;;;;;;21.00;56.20;;;;;;5031686;28;1095;-71
2021/06/03 05:53:02;;;;;;;;;;;21.00;56.40;;;;;;5033366;28;1003;-71
2021/06/03 05:55:27;;;;;;;;;;;21.00;56.50;;;;;;5033509;28;1051;-73
2021/06/03 05:57:53;;;;;;;;;;;21.00;56.70;;;;;;5031583;28;1365;-72
2021/06/03 06:00:19;;;;;;;;;;;21.00;56.80;;;;;;5033615;28;1075;-73
2021/06/03 06:07:55;;;;;;;;;;;21.00;57.10;;;;;;5031945;28;1894;-72
2021/06/03 06:10:20;;;;;;;;;;;21.00;57.20;;;;;;5032892;28;1103;-72
2021/06/03 06:12:46;;;;;;;;;;;21.00;57.30;;;;;;5032674;28;1135;-72
2021/06/03 06:15:11;;;;;;;;;;;21.00;57.40;;;;;;5030916;28;1119;-72
2021/06/03 06:17:37;;;;;;;;;;;21.00;57.50;;;;;;5031118;28;1312;-72
2021/06/03 06:20:03;;;;;;;;;;;20.90;57.50;;;;;;5032997;28;1052;-72
2021/06/03 06:22:31;;;;;;;;;;;20.90;57.60;;;;;;5032296;28;1079;-73
2021/06/03 06:25:03;;;;;;;;;;;20.90;57.70;;;;;;5031035;28;1068;-73
2021/06/03 06:27:28;;;;;;;;;;;20.90;57.70;;;;;;5012157;28;1969;-73
2021/06/03 06:29:53;;;;;;;;;;;20.90;57.80;;;;;;5022136;28;1771;-72
2021/06/03 06:32:19;;;;;;;;;;;20.90;57.90;;;;;;5037685;28;969;-72
2021/06/03 06:34:44;;;;;;;;;;;20.90;57.90;;;;;;5036781;28;1964;-73
2021/06/03 06:37:10;;;;;;;;;;;20.90;58.00;;;;;;5037220;28;1259;-73
2021/06/03 06:39:36;;;;;;;;;;;20.90;58.00;;;;;;5038456;28;1121;-73
2021/06/03 06:42:02;;;;;;;;;;;20.90;58.10;;;;;;5032353;28;1083;-73
2021/06/03 06:44:28;;;;;;;;;;;20.90;58.70;;;;;;5044132;28;1058;-73
2021/06/03 06:46:53;;;;;;;;;;;20.90;58.20;;;;;;5032663;28;1965;-73
2021/06/03 06:49:19;;;;;;;;;;;20.90;58.30;;;;;;5031801;28;1231;-73
2021/06/03 06:51:45;;;;;;;;;;;20.90;58.30;;;;;;5032452;28;1083;-73
2021/06/03 06:54:10;;;;;;;;;;;20.90;58.40;;;;;;5032110;28;1055;-72
2021/06/03 06:56:36;;;;;;;;;;;20.80;58.40;;;;;;5037301;28;1259;-71
2021/06/03 06:59:01;;;;;;;;;;;20.80;58.50;;;;;;5037316;28;1290;-71
2021/06/03 07:01:26;;;;;;;;;;;20.80;58.60;;;;;;5038327;28;1247;-71
2021/06/03 07:03:52;;;;;;;;;;;20.80;59.10;;;;;;5040141;28;1200;-71
2021/06/03 07:06:17;;;;;;;;;;;20.90;59.20;;;;;;5039749;28;1969;-71
2021/06/03 07:08:43;;;;;;;;;;;20.90;59.20;;;;;;5039694;28;1306;-71
2021/06/03 07:11:08;;;;;;;;;;;20.90;59.30;;;;;;5036670;28;1290;-71
2021/06/03 07:13:34;;;;;;;;;;;21.00;59.40;;;;;;5037687;28;1239;-72
2021/06/03 07:15:59;;;;;;;;;;;21.00;60.40;;;;;;5039833;28;1218;-71
2021/06/03 07:18:25;;;;;;;;;;;21.00;59.90;;;;;;5038848;28;1359;-71
2021/06/03 07:20:50;;;;;;;;;;;21.00;60.00;;;;;;5017528;28;1450;-71
2021/06/03 07:23:16;;;;;;;;;;;21.00;60.10;;;;;;5040338;28;1169;-71
2021/06/03 07:25:41;;;;;;;;;;;21.00;60.10;;;;;;5030544;28;1510;-71
2021/06/03 07:28:07;;;;;;;;;;;21.00;60.30;;;;;;5031990;28;1898;-71
2021/06/03 07:30:32;;;;;;;;;;;21.00;60.50;;;;;;5031975;28;1369;-71
2021/06/03 07:32:58;;;;;;;;;;;20.90;60.50;;;;;;5030561;28;1162;-71
2021/06/03 07:35:23;;;;;;;;;;;21.00;60.70;;;;;;5030337;28;1191;-71
2021/06/03 07:37:49;;;;;;;;;;;20.90;60.80;;;;;;5031642;28;1372;-71
2021/06/03 07:40:15;;;;;;;;;;;21.00;60.90;;;;;;5032028;28;1699;-71
2021/06/03 07:42:41;;;;;;;;;;;20.90;61.00;;;;;;5031475;28;1563;-71
2021/06/03 07:45:07;;;;;;;;;;;20.90;61.00;;;;;;5031589;28;1361;-71
2021/06/03 07:47:32;;;;;;;;;;;20.90;61.10;;;;;;5030708;28;1899;-71
2021/06/03 07:49:58;;;;;;;;;;;20.90;61.20;;;;;;5030909;28;1665;-71
2021/06/03 07:52:23;;;;;;;;;;;20.90;61.20;;;;;;5028520;28;2038;-71
2021/06/03 07:54:49;;;;;;;;;;;20.90;61.30;;;;;;5039198;28;1266;-71
2021/06/03 07:57:14;;;;;;;;;;;20.90;61.40;;;;;;5043942;28;1580;-71
2021/06/03 07:59:39;;;;;;;;;;;20.90;61.50;;;;;;5034854;28;1394;-71
2021/06/03 08:02:05;;;;;;;;;;;20.90;61.70;;;;;;5030582;28;1698;-71
2021/06/03 08:04:30;;;;;;;;;;;20.90;61.80;;;;;;5022920;28;1773;-71
2021/06/03 08:06:56;;;;;;;;;;;20.90;62.00;;;;;;5023662;28;1890;-71
2021/06/03 08:09:21;;;;;;;;;;;20.90;62.30;;;;;;5031198;28;1365;-71
2021/06/03 08:11:47;;;;;;;;;;;20.90;62.30;;;;;;5031243;28;1377;-71
2021/06/03 08:14:13;;;;;;;;;;;20.90;62.50;;;;;;5033145;28;1351;-71
2021/06/03 08:16:38;;;;;;;;;;;20.90;62.70;;;;;;5032950;28;1493;-71
2021/06/03 08:19:04;;;;;;;;;;;20.90;62.70;;;;;;5032447;28;1522;-71
2021/06/03 08:21:29;;;;;;;;;;;20.90;62.60;;;;;;5032522;28;1578;-71
2021/06/03 08:23:55;;;;;;;;;;;20.90;62.60;;;;;;5031920;28;1435;-71
2021/06/03 08:26:23;;;;;;;;;;;20.90;62.70;;;;;;5034417;28;1910;-71
2021/06/03 08:28:49;;;;;;;;;;;20.90;62.60;;;;;;5031069;28;1439;-71
2021/06/03 08:31:14;;;;;;;;;;;20.90;62.60;;;;;;5033958;28;1444;-71
2021/06/03 08:33:39;;;;;;;;;;;20.90;62.60;;;;;;5034213;28;1456;-71
2021/06/03 08:36:05;;;;;;;;;;;20.90;62.60;;;;;;5033978;28;1572;-71
2021/06/03 08:38:30;;;;;;;;;;;20.90;62.70;;;;;;5032277;28;1585;-71
2021/06/03 08:40:57;;;;;;;;;;;20.90;62.80;;;;;;5034882;28;1408;-71
2021/06/03 08:43:23;;;;;;;;;;;20.90;62.90;;;;;;5032929;28;1579;-71
2021/06/03 08:45:48;;;;;;;;;;;20.90;62.90;;;;;;5033212;28;1620;-71
2021/06/03 08:48:14;;;;;;;;;;;20.90;63.00;;;;;;5034724;28;2413;-71
2021/06/03 08:50:41;;;;;;;;;;;20.90;63.00;;;;;;5034823;28;1376;-71
2021/06/03 08:53:07;;;;;;;;;;;20.90;63.00;;;;;;5033566;28;1440;-71
2021/06/03 08:58:17;;;;;;;;;;;20.80;63.10;;;;;;5034367;28;1350;-71
2021/06/03 09:00:42;;;;;;;;;;;20.80;63.20;;;;;;5034435;28;1716;-71
2021/06/03 09:03:08;;;;;;;;;;;20.80;63.30;;;;;;5033671;28;1673;-70
2021/06/03 09:05:34;;;;;;;;;;;20.80;63.40;;;;;;5033324;28;1735;-70
2021/06/03 09:08:14;;;;;;;;;;;20.80;63.40;;;;;;5033266;28;1961;-70
2021/06/03 09:10:39;;;;;;;;;;;20.80;63.60;;;;;;5034493;28;1513;-71
2021/06/03 09:13:09;;;;;;;;;;;20.80;63.80;;;;;;5033202;28;1664;-71
2021/06/03 09:15:34;;;;;;;;;;;20.80;64.70;;;;;;5033947;28;1281;-70
2021/06/03 09:18:02;;;;;;;;;;;20.80;64.20;;;;;;5033114;28;1337;-70
2021/06/03 09:20:27;;;;;;;;;;;20.90;64.30;;;;;;5033950;28;1630;-71
2021/06/03 09:22:55;;;;;;;;;;;20.80;64.50;;;;;;5033423;28;1445;-72
2021/06/03 09:25:37;;;;;;;;;;;20.90;64.70;;;;;;5033708;28;1338;-73
2021/06/03 09:28:16;;;;;;;;;;;20.90;64.60;;;;;;5024652;28;2173;-72
2021/06/03 09:30:50;;;;;;;;;;;20.90;64.60;;;;;;5045227;28;1584;-73
2021/06/03 09:33:16;;;;;;;;;;;20.90;64.60;;;;;;5039316;28;1745;-73
2021/06/03 09:35:54;;;;;;;;;;;20.90;64.70;;;;;;5033369;28;1507;-73
2021/06/03 09:38:19;;;;;;;;;;;20.90;64.80;;;;;;5033329;28;1193;-73
2021/06/03 09:40:48;;;;;;;;;;;20.90;65.20;;;;;;5033577;28;1282;-73
2021/06/03 09:43:14;;;;;;;;;;;20.90;65.10;;;;;;5033028;28;1566;-73
2021/06/03 09:46:12;;;;;;;;;;;20.90;65.10;;;;;;5012781;28;1789;-72
2021/06/03 09:48:41;;;;;;;;;;;20.90;65.20;;;;;;4995427;28;1404;-72
2021/06/03 09:51:20;;;;;;;;;;;20.90;65.20;;;;;;5031688;28;1161;-73
2021/06/03 09:54:08;;;;;;;;;;;20.90;65.10;;;;;;5032850;28;1338;-72
2021/06/03 09:56:35;;;;;;;;;;;20.90;65.10;;;;;;5028232;28;1471;-73
2021/06/03 09:59:00;;;;;;;;;;;20.80;65.00;;;;;;5031860;28;1629;-73
2021/06/03 10:01:45;;;;;;;;;;;20.90;65.00;;;;;;5033250;28;1250;-73
2021/06/03 10:04:11;;;;;;;;;;;20.80;64.80;;;;;;5032556;28;1293;-73
2021/06/03 10:06:51;;;;;;;;;;;20.80;64.80;;;;;;5032619;28;2108;-73
2021/06/03 10:09:16;;;;;;;;;;;20.90;64.90;;;;;;5031932;28;1343;-73
2021/06/03 10:11:42;;;;;;;;;;;20.90;65.00;;;;;;5033122;28;1843;-73
2021/06/03 10:14:11;;;;;;;;;;;20.80;64.90;;;;;;5032413;28;1296;-73
2021/06/03 10:16:36;;;;;;;;;;;20.90;65.00;;;;;;5032096;28;1384;-73
2021/06/03 10:19:21;;;;;;;;;;;20.80;64.90;;;;;;5031840;28;1620;-73
2021/06/03 10:22:06;;;;;;;;;;;20.90;65.10;;;;;;5032832;28;1578;-73
2021/06/03 10:24:47;;;;;;;;;;;20.90;65.10;;;;;;5024571;28;1208;-73
2021/06/03 10:27:13;;;;;;;;;;;20.90;65.00;;;;;;5033011;28;1914;-72
2021/06/03 10:29:39;;;;;;;;;;;20.90;65.00;;;;;;5032974;28;1374;-73
2021/06/03 10:32:04;;;;;;;;;;;20.80;64.90;;;;;;5033106;28;1611;-73
2021/06/03 10:34:30;;;;;;;;;;;20.80;64.90;;;;;;5031744;28;1574;-73
2021/06/03 10:36:56;;;;;;;;;;;20.80;64.90;;;;;;5030712;28;1384;-73
2021/06/03 10:39:21;;;;;;;;;;;20.80;64.90;;;;;;5032423;28;1396;-73
2021/06/03 10:41:47;;;;;;;;;;;20.80;65.00;;;;;;5031581;28;1390;-72
2021/06/03 10:44:12;;;;;;;;;;;20.80;65.10;;;;;;5030806;28;1385;-73
2021/06/03 10:46:38;;;;;;;;;;;20.80;65.10;;;;;;5031405;28;1898;-73
2021/06/03 10:49:03;;;;;;;;;;;20.80;65.20;;;;;;5011177;28;1687;-73
2021/06/03 10:51:29;;;;;;;;;;;20.90;65.40;;;;;;5027812;28;1360;-73
2021/06/03 10:53:54;;;;;;;;;;;20.90;65.60;;;;;;5030526;28;1548;-73
2021/06/03 10:56:22;;;;;;;;;;;20.80;65.60;;;;;;5032468;28;1396;-72
2021/06/03 10:58:48;;;;;;;;;;;20.90;65.50;;;;;;5031349;28;1663;-73
2021/06/03 11:01:14;;;;;;;;;;;20.90;65.60;;;;;;5031240;28;1577;-73
2021/06/03 11:03:40;;;;;;;;;;;20.80;65.70;;;;;;5031723;28;1145;-73
2021/06/03 11:06:10;;;;;;;;;;;20.80;65.70;;;;;;5031007;28;1590;-73
2021/06/03 11:08:39;;;;;;;;;;;20.90;65.80;;;;;;5031916;28;1969;-73
2021/06/03 11:11:08;;;;;;;;;;;20.90;65.70;;;;;;5030866;28;1382;-73
2021/06/03 11:13:33;;;;;;;;;;;20.90;65.60;;;;;;5031548;28;1182;-73
2021/06/03 11:16:02;;;;;;;;;;;20.90;65.60;;;;;;5030847;28;1519;-73
2021/06/03 11:18:46;;;;;;;;;;;20.90;65.60;;;;;;5031683;28;1419;-73
2021/06/03 11:21:37;;;;;;;;;;;20.90;65.60;;;;;;5032107;28;1523;-73
2021/06/03 11:24:06;;;;;;;;;;;20.90;65.50;;;;;;5005844;28;1638;-73
2021/06/03 11:26:37;;;;;;;;;;;20.90;65.50;;;;;;5031988;28;1957;-70
2021/06/03 11:29:07;;;;;;;;;;;20.90;65.60;;;;;;5031752;28;1462;-72
2021/06/03 11:31:32;;;;;;;;;;;20.90;65.60;;;;;;5032185;28;1170;-73
2021/06/03 11:34:03;;;;;;;;;;;20.90;65.50;;;;;;5031355;28;1699;-72
2021/06/03 11:36:32;;;;;;;;;;;20.90;65.50;;;;;;5030568;28;1409;-72
2021/06/03 11:38:58;;;;;;;;;;;20.90;65.50;;;;;;5030783;28;1432;-72
2021/06/03 11:41:36;;;;;;;;;;;20.90;65.60;;;;;;5030562;28;1440;-72
2021/06/03 11:44:08;;;;;;;;;;;20.90;65.60;;;;;;5030723;28;1382;-71
2021/06/03 11:46:49;;;;;;;;;;;20.90;65.50;;;;;;5033445;28;1953;-72
2021/06/03 11:49:33;;;;;;;;;;;20.90;65.50;;;;;;5035768;28;1198;-72
2021/06/03 11:52:10;;;;;;;;;;;20.90;65.60;;;;;;5035549;28;1396;-72
2021/06/03 11:54:52;;;;;;;;;;;20.90;65.50;;;;;;5034626;28;1341;-72
2021/06/03 11:57:18;;;;;;;;;;;20.90;65.50;;;;;;5034416;28;1380;-71
2021/06/03 11:59:56;;;;;;;;;;;20.90;65.50;;;;;;5060955;22;2314;-64
2021/06/03 12:02:38;;;;;;;;;;;20.90;65.50;;;;;;5037435;28;1212;-64
2021/06/03 12:05:10;;;;;;;;;;;20.90;65.50;;;;;;5041212;28;1368;-64
2021/06/03 12:07:51;;;;;;;;;;;20.90;64.50;;;;;;5055473;28;1898;-64
2021/06/03 12:10:21;;;;;;;;;;;20.90;63.60;;;;;;5055469;28;1384;-64
2021/06/03 12:12:46;;;;;;;;;;;21.00;62.90;;;;;;5054826;28;1558;-64
2021/06/03 12:15:30;;;;;;;;;;;21.00;61.80;;;;;;5042653;28;1458;-65
2021/06/03 12:17:59;;;;;;;;;;;21.00;60.20;;;;;;5054613;28;1445;-64
2021/06/03 12:20:24;;;;;;;;;;;21.00;60.50;;;;;;5048559;28;1484;-64
2021/06/03 12:22:50;;;;;;;;;;;21.00;61.10;;;;;;5046627;28;1176;-64
2021/06/03 12:25:15;;;;;;;;;;;21.00;61.00;;;;;;5045194;28;1223;-66
2021/06/03 12:27:42;;;;;;;;;;;21.00;60.90;;;;;;5049857;28;1969;-65
2021/06/03 12:30:14;;;;;;;;;;;21.00;60.80;;;;;;5048767;28;1373;-64
2021/06/03 12:32:40;;;;;;;;;;;21.00;60.50;;;;;;5054637;28;1126;-64
2021/06/03 12:35:05;;;;;;;;;;;21.00;60.20;;;;;;5052776;28;1091;-64
2021/06/03 12:37:31;;;;;;;;;;;21.00;60.20;;;;;;5054379;28;1079;-65
2021/06/03 12:39:57;;;;;;;;;;;21.00;60.20;;;;;;5046300;28;1390;-65
2021/06/03 12:42:23;;;;;;;;;;;21.00;57.40;;;;;;5045540;28;1297;-64
2021/06/03 12:44:53;;;;;;;;;;;21.00;56.80;;;;;;5044015;28;1353;-64
2021/06/03 12:47:18;;;;;;;;;;;21.10;56.60;;;;;;5042602;28;1898;-64
2021/06/03 12:49:44;;;;;;;;;;;21.10;55.40;;;;;;5043603;28;1278;-63
2021/06/03 12:52:10;;;;;;;;;;;21.10;55.70;;;;;;5050132;28;1071;-64
2021/06/03 12:54:36;;;;;;;;;;;21.10;56.70;;;;;;5050983;28;1692;-63
2021/06/03 12:57:02;;;;;;;;;;;21.10;57.50;;;;;;5054612;28;1059;-64
2021/06/03 12:59:28;;;;;;;;;;;21.20;54.40;;;;;;5048031;28;1378;-63
2021/06/03 13:01:58;;;;;;;;;;;21.20;52.60;;;;;;5047245;28;1207;-63
2021/06/03 13:04:30;;;;;;;;;;;21.20;53.10;;;;;;5053853;28;1052;-65
2021/06/03 13:06:55;;;;;;;;;;;21.20;54.80;;;;;;5054606;28;1967;-64
2021/06/03 13:09:21;;;;;;;;;;;21.20;56.70;;;;;;5053791;28;1458;-65
2021/06/03 13:11:47;;;;;;;;;;;21.20;55.20;;;;;;5053781;28;1090;-66
2021/06/03 13:14:13;;;;;;;;;;;21.20;50.80;;;;;;5050307;28;1102;-67
2021/06/03 13:16:38;;;;;;;;;;;21.30;51.70;;;;;;5043213;28;1130;-64
2021/06/03 13:19:10;;;;;;;;;;;21.30;53.40;;;;;;5048038;28;1355;-66
2021/06/03 13:21:36;;;;;;;;;;;21.30;53.50;;;;;;5053553;28;1082;-66
2021/06/03 13:24:01;;;;;;;;;;;21.30;54.70;;;;;;5053752;28;1126;-65
2021/06/03 13:26:27;;;;;;;;;;;21.20;55.90;;;;;;5053282;28;1898;-66
2021/06/03 13:28:52;;;;;;;;;;;21.20;56.30;;;;;;5050028;28;1991;-67
2021/06/03 13:31:18;;;;;;;;;;;21.20;55.00;;;;;;5060482;28;1919;-64
2021/06/03 13:33:43;;;;;;;;;;;21.20;54.50;;;;;;5058440;28;1117;-66
2021/06/03 13:36:11;;;;;;;;;;;21.20;53.80;;;;;;5063278;28;1089;-66
2021/06/03 13:38:43;;;;;;;;;;;21.20;55.30;;;;;;5047981;28;1264;-66
2021/06/03 13:41:09;;;;;;;;;;;21.20;56.70;;;;;;5043792;28;1172;-65
2021/06/03 13:43:34;;;;;;;;;;;21.20;57.20;;;;;;5044460;28;1218;-66
2021/06/03 13:46:04;;;;;;;;;;;21.10;57.00;;;;;;5042265;28;1322;-65
2021/06/03 13:48:30;;;;;;;;;;;21.10;57.10;;;;;;5047155;28;1898;-69
2021/06/03 13:50:55;;;;;;;;;;;21.10;57.10;;;;;;5052833;28;1256;-69
2021/06/03 13:53:23;;;;;;;;;;;21.10;57.00;;;;;;5046789;28;2006;-65
2021/06/03 13:55:50;;;;;;;;;;;21.10;57.40;;;;;;5061353;28;1291;-67
2021/06/03 13:58:34;;;;;;;;;;;21.10;57.60;;;;;;5062669;28;1083;-68
2021/06/03 14:01:06;;;;;;;;;;;21.10;57.70;;;;;;5052089;28;1248;-66
2021/06/03 14:03:35;;;;;;;;;;;21.10;58.10;;;;;;5053004;28;1067;-67
2021/06/03 14:06:04;;;;;;;;;;;21.00;57.90;;;;;;5053169;28;1126;-67
2021/06/03 14:08:33;;;;;;;;;;;21.00;57.00;;;;;;5052251;28;1966;-66
2021/06/03 14:11:03;;;;;;;;;;;21.00;55.80;;;;;;5051955;28;1286;-65
2021/06/03 14:13:29;;;;;;;;;;;21.00;57.40;;;;;;5051791;28;1082;-68
2021/06/03 14:15:54;;;;;;;;;;;21.00;56.50;;;;;;5052375;28;1220;-66
2021/06/03 14:18:23;;;;;;;;;;;21.00;57.90;;;;;;5052739;28;1243;-67
2021/06/03 14:20:48;;;;;;;;;;;21.00;57.80;;;;;;5052604;28;1277;-66
2021/06/03 14:23:15;;;;;;;;;;;21.00;58.30;;;;;;5050884;28;988;-66
2021/06/03 14:25:40;;;;;;;;;;;21.00;58.40;;;;;;5052086;28;1126;-68
2021/06/03 14:28:10;;;;;;;;;;;21.00;58.50;;;;;;5052344;28;1918;-66
2021/06/03 14:30:37;;;;;;;;;;;21.00;59.00;;;;;;5034532;28;1757;-67
2021/06/03 14:33:04;;;;;;;;;;;20.90;58.60;;;;;;5050828;28;1043;-67
2021/06/03 14:35:32;;;;;;;;;;;21.00;58.20;;;;;;5051585;28;1157;-67
2021/06/03 14:37:58;;;;;;;;;;;20.90;57.70;;;;;;5051088;28;1059;-68
2021/06/03 14:40:34;;;;;;;;;;;20.90;58.40;;;;;;5050781;28;1354;-66
2021/06/03 14:43:05;;;;;;;;;;;20.90;58.40;;;;;;5050650;28;1063;-68